createdAt,value
2023-04-28T00:00:03.853Z,74.1
2023-04-28T00:01:01.689Z,74.1
2023-04-28T00:02:02.192Z,73.8
2023-04-28T00:03:01.758Z,73.6
2023-04-28T00:04:04.181Z,74.1
2023-04-28T00:05:01.705Z,74.1
2023-04-28T00:06:02.153Z,74.1
2023-04-28T00:07:03.206Z,73.9
2023-04-28T00:08:02.109Z,73.9
2023-04-28T00:09:03.306Z,73.4
2023-04-28T00:10:02.020Z,73.6
2023-04-28T00:11:02.654Z,74
2023-04-28T00:12:02.969Z,73.9
2023-04-28T00:13:01.754Z,74
2023-04-28T00:14:02.251Z,73.8
2023-04-28T00:15:01.819Z,73.9
2023-04-28T00:16:02.296Z,74
2023-04-28T00:17:01.700Z,74.6
2023-04-28T00:18:02.202Z,75.1
2023-04-28T00:19:01.655Z,74.1
2023-04-28T00:20:02.111Z,75
2023-04-28T00:21:01.682Z,74.7
2023-04-28T00:22:02.097Z,74.7
2023-04-28T00:23:01.541Z,76
2023-04-28T00:24:03.692Z,75.4
2023-04-28T00:25:01.465Z,75.6
2023-04-28T00:26:01.954Z,75.5
2023-04-28T00:27:01.480Z,76.6
2023-04-28T00:28:03.522Z,76.2
2023-04-28T00:29:01.367Z,75.8
2023-04-28T00:30:03.549Z,75.4
2023-04-28T00:31:02.350Z,75
2023-04-28T00:32:01.799Z,74.9
2023-04-28T00:33:02.303Z,75.5
2023-04-28T00:34:01.680Z,76.5
2023-04-28T00:35:02.168Z,76.3
2023-04-28T00:36:03.317Z,76.8
2023-04-28T00:37:02.157Z,77.6
2023-04-28T00:38:01.616Z,77.3
2023-04-28T00:39:02.091Z,77.6
2023-04-28T00:40:01.550Z,77.8
2023-04-28T00:41:02.008Z,78.2
2023-04-28T00:42:01.541Z,78.1
2023-04-28T00:43:03.598Z,76.9
2023-04-28T00:44:01.449Z,77.5
2023-04-28T00:45:01.933Z,78.3
2023-04-28T00:46:03.111Z,78.7
2023-04-28T00:47:03.583Z,79.1
2023-04-28T00:48:01.389Z,79.4
2023-04-28T00:49:01.774Z,79.6
2023-04-28T00:50:02.266Z,79.6
2023-04-28T00:51:01.681Z,79.6
2023-04-28T00:52:02.250Z,79.3
2023-04-28T00:53:01.706Z,79.1
2023-04-28T00:54:03.441Z,79
2023-04-28T00:55:02.329Z,78.2
2023-04-28T00:56:01.679Z,77.4
2023-04-28T00:57:02.177Z,77.5
2023-04-28T00:58:03.303Z,77.4
2023-04-28T00:59:03.762Z,77.1
2023-04-28T01:00:01.656Z,76.4
2023-04-28T01:01:03.790Z,76.5
2023-04-28T01:02:01.674Z,76.5
2023-04-28T01:03:02.253Z,76.4
2023-04-28T01:04:01.803Z,76
2023-04-28T01:05:02.032Z,76.8
2023-04-28T01:06:01.693Z,77.2
2023-04-28T01:07:02.199Z,76.3
2023-04-28T01:08:01.619Z,77.1
2023-04-28T01:09:02.164Z,77.3
2023-04-28T01:10:01.622Z,76.5
2023-04-28T01:11:02.185Z,77.3
2023-04-28T01:12:01.696Z,78.3
2023-04-28T01:13:02.169Z,78.4
2023-04-28T01:14:01.693Z,78.8
2023-04-28T01:15:02.174Z,78.9
2023-04-28T01:16:01.758Z,78.2
2023-04-28T01:17:02.168Z,77.6
2023-04-28T01:18:01.506Z,77.5
2023-04-28T01:19:01.921Z,77.7
2023-04-28T01:20:01.441Z,77.1
2023-04-28T01:21:01.843Z,77.3
2023-04-28T01:22:01.391Z,78.4
2023-04-28T01:23:03.437Z,79.9
2023-04-28T01:24:02.240Z,80.4
2023-04-28T01:25:01.762Z,80.4
2023-04-28T01:26:02.240Z,80.4
2023-04-28T01:27:01.706Z,80.5
2023-04-28T01:28:02.165Z,80.7
2023-04-28T01:29:01.678Z,80.6
2023-04-28T01:30:02.140Z,80.5
2023-04-28T01:31:01.550Z,80.4
2023-04-28T01:32:03.744Z,80.6
2023-04-28T01:33:01.541Z,80.6
2023-04-28T01:34:01.932Z,80
2023-04-28T01:35:01.475Z,80.6
2023-04-28T01:36:01.919Z,80.6
2023-04-28T01:37:01.385Z,80.3
2023-04-28T01:38:03.520Z,79.5
2023-04-28T01:39:02.319Z,79.1
2023-04-28T01:40:01.763Z,79.3
2023-04-28T01:41:02.239Z,79.6
2023-04-28T01:42:01.710Z,79.8
2023-04-28T01:43:02.162Z,79.8
2023-04-28T01:44:01.606Z,79.8
2023-04-28T01:45:02.102Z,79.8
2023-04-28T01:46:01.573Z,80
2023-04-28T01:47:03.698Z,79.9
2023-04-28T01:48:01.494Z,80.5
2023-04-28T01:49:03.688Z,80.7
2023-04-28T01:50:01.466Z,80.8
2023-04-28T01:51:03.597Z,80.8
2023-04-28T01:52:01.361Z,81.3
2023-04-28T01:53:01.856Z,81.5
2023-04-28T01:54:02.322Z,81.6
2023-04-28T01:55:01.764Z,81.6
2023-04-28T01:56:02.243Z,81.6
2023-04-28T01:57:01.682Z,81.6
2023-04-28T01:58:02.171Z,81.6
2023-04-28T01:59:03.356Z,81.6
2023-04-28T02:00:02.091Z,81.7
2023-04-28T02:01:03.313Z,81.9
2023-04-28T02:02:03.802Z,81.6
2023-04-28T02:03:01.629Z,81.6
2023-04-28T02:04:02.125Z,82
2023-04-28T02:05:01.515Z,82.1
2023-04-28T02:06:01.921Z,82.1
2023-04-28T02:07:01.386Z,82.1
2023-04-28T02:08:03.541Z,81.9
2023-04-28T02:09:01.393Z,81.9
2023-04-28T02:10:01.871Z,82
2023-04-28T02:11:03.965Z,82
2023-04-28T02:12:01.772Z,82
2023-04-28T02:13:02.230Z,82
2023-04-28T02:14:01.691Z,81.9
2023-04-28T02:15:02.181Z,81.6
2023-04-28T02:16:01.671Z,81.9
2023-04-28T02:17:02.105Z,81.9
2023-04-28T02:18:01.576Z,81.8
2023-04-28T02:19:02.093Z,81.6
2023-04-28T02:20:01.629Z,81.6
2023-04-28T02:21:02.319Z,81.5
2023-04-28T02:22:02.159Z,81.5
2023-04-28T02:23:01.680Z,81.4
2023-04-28T02:24:02.174Z,81.4
2023-04-28T02:25:01.649Z,81.4
2023-04-28T02:26:02.082Z,81.3
2023-04-28T02:27:01.529Z,80.6
2023-04-28T02:28:02.004Z,80.8
2023-04-28T02:29:01.468Z,80.5
2023-04-28T02:30:01.927Z,80.1
2023-04-28T02:31:01.483Z,80
2023-04-28T02:32:03.535Z,80.4
2023-04-28T02:33:03.094Z,80.8
2023-04-28T02:34:01.842Z,81.2
2023-04-28T02:35:03.966Z,81.2
2023-04-28T02:36:01.754Z,81.3
2023-04-28T02:37:04.011Z,81.1
2023-04-28T02:38:01.702Z,80.7
2023-04-28T02:39:02.152Z,80.4
2023-04-28T02:40:01.595Z,80.6
2023-04-28T02:41:02.082Z,80.4
2023-04-28T02:42:01.527Z,80.2
2023-04-28T02:43:02.030Z,80.9
2023-04-28T02:44:01.456Z,81.1
2023-04-28T02:45:01.951Z,81.6
2023-04-28T02:46:01.450Z,81.9
2023-04-28T02:47:02.180Z,82
2023-04-28T02:48:01.429Z,82
2023-04-28T02:49:01.879Z,81.9
2023-04-28T02:50:02.312Z,81.6
2023-04-28T02:51:01.758Z,81.2
2023-04-28T02:52:02.229Z,80.9
2023-04-28T02:53:01.788Z,80.8
2023-04-28T02:54:02.235Z,80.5
2023-04-28T02:55:01.729Z,80.4
2023-04-28T02:56:02.169Z,80.4
2023-04-28T02:57:01.609Z,80.1
2023-04-28T02:58:02.099Z,80
2023-04-28T02:59:03.204Z,79.8
2023-04-28T03:00:03.675Z,79.8
2023-04-28T03:01:03.203Z,79.6
2023-04-28T03:02:01.928Z,79.2
2023-04-28T03:03:01.628Z,79.7
2023-04-28T03:04:02.303Z,80
2023-04-28T03:05:03.126Z,80.1
2023-04-28T03:06:01.858Z,79.8
2023-04-28T03:07:01.358Z,80
2023-04-28T03:08:01.863Z,80.4
2023-04-28T03:09:03.997Z,80.7
2023-04-28T03:10:01.778Z,81
2023-04-28T03:11:02.244Z,81.1
2023-04-28T03:12:03.358Z,81.1
2023-04-28T03:13:02.196Z,81
2023-04-28T03:14:01.669Z,80.7
2023-04-28T03:15:03.842Z,80.8
2023-04-28T03:16:01.628Z,80.8
2023-04-28T03:17:02.064Z,80.5
2023-04-28T03:18:01.687Z,80.9
2023-04-28T03:19:02.139Z,81.1
2023-04-28T03:20:01.490Z,81.4
2023-04-28T03:21:03.656Z,81.1
2023-04-28T03:22:01.414Z,81.1
2023-04-28T03:23:01.920Z,80.8
2023-04-28T03:24:02.971Z,80.8
2023-04-28T03:25:01.948Z,81
2023-04-28T03:26:01.454Z,81.3
2023-04-28T03:27:03.120Z,81.3
2023-04-28T03:28:03.041Z,81.5
2023-04-28T03:29:02.169Z,81.6
2023-04-28T03:30:02.111Z,81.8
2023-04-28T03:31:03.545Z,81.6
2023-04-28T03:33:01.881Z,81.5
2023-04-28T03:34:02.238Z,81.3
2023-04-28T03:35:01.774Z,81.5
2023-04-28T03:36:02.243Z,81.4
2023-04-28T03:37:01.667Z,81.6
2023-04-28T03:38:02.170Z,81.8
2023-04-28T03:39:01.732Z,81.8
2023-04-28T03:40:02.174Z,81.8
2023-04-28T03:41:03.272Z,82
2023-04-28T03:42:02.139Z,81.7
2023-04-28T03:43:04.726Z,81.6
2023-04-28T03:44:01.995Z,81.4
2023-04-28T03:45:01.521Z,81.8
2023-04-28T03:46:02.109Z,81.9
2023-04-28T03:47:03.106Z,82
2023-04-28T03:48:01.954Z,81.7
2023-04-28T03:49:01.396Z,81.2
2023-04-28T03:50:01.825Z,80.9
2023-04-28T03:51:03.044Z,81.3
2023-04-28T03:52:01.841Z,81.8
2023-04-28T03:53:02.313Z,82.1
2023-04-28T03:54:01.783Z,82.3
2023-04-28T03:55:02.253Z,82.4
2023-04-28T03:56:01.745Z,82.5
2023-04-28T03:57:02.172Z,82.3
2023-04-28T03:58:03.361Z,82.2
2023-04-28T03:59:02.178Z,82
2023-04-28T04:00:01.622Z,81.9
2023-04-28T04:01:03.768Z,81.5
2023-04-28T04:02:01.623Z,81.2
2023-04-28T04:03:03.858Z,81.6
2023-04-28T04:04:01.650Z,81.1
2023-04-28T04:05:02.322Z,81.4
2023-04-28T04:06:01.441Z,81.5
2023-04-28T04:07:01.922Z,81.7
2023-04-28T04:08:01.364Z,81.3
2023-04-28T04:09:01.857Z,81.5
2023-04-28T04:10:04.423Z,81.7
2023-04-28T04:11:01.781Z,81.3
2023-04-28T04:12:03.931Z,81.7
2023-04-28T04:13:01.684Z,81.3
2023-04-28T04:14:02.252Z,81.2
2023-04-28T04:15:01.703Z,81.5
2023-04-28T04:16:02.189Z,81.2
2023-04-28T04:17:01.596Z,81.4
2023-04-28T04:18:02.151Z,81.7
2023-04-28T04:19:03.301Z,82
2023-04-28T04:20:02.079Z,82.3
2023-04-28T04:21:01.540Z,82.5
2023-04-28T04:22:03.674Z,82.6
2023-04-28T04:23:01.452Z,82.7
2023-04-28T04:24:03.717Z,82.8
2023-04-28T04:25:01.444Z,82.8
2023-04-28T04:26:03.519Z,82.7
2023-04-28T04:27:01.357Z,82.9
2023-04-28T04:28:01.842Z,82.6
2023-04-28T04:29:01.364Z,82.5
2023-04-28T04:30:01.831Z,82.5
2023-04-28T04:31:02.266Z,82.3
2023-04-28T04:32:03.441Z,82.4
2023-04-28T04:33:02.266Z,82.4
2023-04-28T04:34:01.679Z,82.5
2023-04-28T04:35:02.203Z,82.6
2023-04-28T04:36:01.678Z,82.6
2023-04-28T04:37:03.752Z,82.5
2023-04-28T04:38:01.604Z,82.2
2023-04-28T04:39:02.075Z,82.4
2023-04-28T04:40:01.790Z,82.6
2023-04-28T04:41:02.237Z,82.7
2023-04-28T04:42:07.447Z,82.8
2023-04-28T04:43:02.163Z,82.7
2023-04-28T04:44:01.595Z,82.4
2023-04-28T04:45:02.111Z,82
2023-04-28T04:46:03.324Z,82.4
2023-04-28T04:47:03.675Z,82.6
2023-04-28T04:48:01.544Z,82.2
2023-04-28T04:49:01.988Z,82.1
2023-04-28T04:50:03.161Z,82
2023-04-28T04:51:01.948Z,81.9
2023-04-28T04:52:01.354Z,81.8
2023-04-28T04:53:01.854Z,81.6
2023-04-28T04:54:01.366Z,81.7
2023-04-28T04:55:03.544Z,81.5
2023-04-28T04:56:02.324Z,80.8
2023-04-28T04:57:01.764Z,80.7
2023-04-28T04:58:03.199Z,80.6
2023-04-28T04:59:02.002Z,80.3
2023-04-28T05:00:03.285Z,79.9
2023-04-28T05:01:02.238Z,80
2023-04-28T05:02:02.387Z,80.3
2023-04-28T05:03:03.088Z,80.2
2023-04-28T05:04:02.101Z,79.9
2023-04-28T05:05:12.370Z,79.9
2023-04-28T05:06:01.930Z,79.9
2023-04-28T05:07:01.460Z,80.1
2023-04-28T05:08:02.088Z,80.1
2023-04-28T05:09:01.602Z,80.1
2023-04-28T05:10:02.216Z,80.1
2023-04-28T05:11:01.719Z,80.1
2023-04-28T05:12:02.173Z,80.4
2023-04-28T05:13:01.722Z,80.5
2023-04-28T05:14:04.100Z,80.5
2023-04-28T05:15:01.896Z,80.6
2023-04-28T05:16:01.394Z,80.6
2023-04-28T05:17:01.942Z,80.8
2023-04-28T05:18:01.587Z,80.6
2023-04-28T05:19:02.011Z,80.5
2023-04-28T05:20:01.558Z,80.4
2023-04-28T05:21:02.021Z,80.4
2023-04-28T05:22:01.543Z,80.5
2023-04-28T05:23:02.096Z,80.5
2023-04-28T05:24:01.540Z,80.6
2023-04-28T05:25:02.271Z,80.3
2023-04-28T05:26:01.968Z,79.9
2023-04-28T05:27:03.213Z,79.8
2023-04-28T05:28:02.205Z,79.5
2023-04-28T05:29:02.265Z,79.5
2023-04-28T05:30:01.861Z,79.7
2023-04-28T05:31:01.642Z,79.3
2023-04-28T05:33:02.079Z,79.1
2023-04-28T05:34:01.544Z,79.4
2023-04-28T05:35:02.098Z,79.6
2023-04-28T05:36:05.228Z,79.5
2023-04-28T05:37:02.185Z,79
2023-04-28T05:38:01.784Z,78.9
2023-04-28T05:39:01.470Z,78.6
2023-04-28T05:40:02.093Z,78.3
2023-04-28T05:41:01.851Z,78.6
2023-04-28T05:42:03.246Z,78.8
2023-04-28T05:43:01.376Z,78.4
2023-04-28T05:44:01.933Z,77.5
2023-04-28T05:45:01.464Z,77
2023-04-28T05:46:01.482Z,77
2023-04-28T05:47:02.131Z,76.7
2023-04-28T05:48:01.701Z,76.5
2023-04-28T05:49:03.854Z,76.6
2023-04-28T05:50:01.614Z,76.8
2023-04-28T05:51:02.096Z,76.8
2023-04-28T05:52:03.216Z,76.4
2023-04-28T05:53:03.719Z,75.6
2023-04-28T05:54:01.475Z,75.4
2023-04-28T05:55:03.619Z,76
2023-04-28T05:56:03.136Z,76
2023-04-28T05:57:02.005Z,76.9
2023-04-28T05:58:01.374Z,77.2
2023-04-28T05:59:01.864Z,77.2
2023-04-28T06:00:01.384Z,76.8
2023-04-28T06:01:03.531Z,75.8
2023-04-28T06:02:02.309Z,76
2023-04-28T06:03:01.976Z,76.5
2023-04-28T06:04:04.121Z,76.2
2023-04-28T06:05:02.137Z,76
2023-04-28T06:06:02.196Z,75.7
2023-04-28T06:07:01.617Z,76
2023-04-28T06:08:03.766Z,76.2
2023-04-28T06:09:01.604Z,76.2
2023-04-28T06:10:02.123Z,76.3
2023-04-28T06:11:01.560Z,76.3
2023-04-28T06:12:03.690Z,76.3
2023-04-28T06:13:01.468Z,76.4
2023-04-28T06:14:03.594Z,76.4
2023-04-28T06:15:01.482Z,76.4
2023-04-28T06:16:03.575Z,76.4
2023-04-28T06:17:02.176Z,76.2
2023-04-28T06:18:01.871Z,76
2023-04-28T06:19:02.329Z,75.8
2023-04-28T06:20:01.765Z,75.6
2023-04-28T06:21:02.241Z,75.4
2023-04-28T06:22:03.379Z,75.4
2023-04-28T06:23:02.159Z,75.9
2023-04-28T06:24:01.675Z,76.1
2023-04-28T06:25:02.142Z,76.8
2023-04-28T06:26:01.606Z,77
2023-04-28T06:27:02.100Z,76.6
2023-04-28T06:28:01.539Z,76.5
2023-04-28T06:29:02.031Z,76.8
2023-04-28T06:30:01.522Z,76.9
2023-04-28T06:31:02.008Z,76.9
2023-04-28T06:32:01.433Z,76.8
2023-04-28T06:33:01.961Z,76.5
2023-04-28T06:34:01.361Z,76.5
2023-04-28T06:35:01.918Z,76.7
2023-04-28T06:36:01.352Z,76.5
2023-04-28T06:37:01.826Z,76.3
2023-04-28T06:39:01.753Z,76.2
2023-04-28T06:40:03.937Z,75.8
2023-04-28T06:41:01.757Z,75.9
2023-04-28T06:42:02.239Z,76.5
2023-04-28T06:43:03.350Z,76.1
2023-04-28T06:44:02.154Z,75.7
2023-04-28T06:45:03.362Z,76
2023-04-28T06:46:02.072Z,76.3
2023-04-28T06:47:01.804Z,76.4
2023-04-28T06:48:02.080Z,76.3
2023-04-28T06:49:01.515Z,76.3
2023-04-28T06:50:02.023Z,76.3
2023-04-28T06:51:01.530Z,76.2
2023-04-28T06:52:03.585Z,76.3
2023-04-28T06:53:01.454Z,76.4
2023-04-28T06:54:01.912Z,76.5
2023-04-28T06:55:01.355Z,76.7
2023-04-28T06:56:03.702Z,76.9
2023-04-28T06:57:01.517Z,76.9
2023-04-28T06:58:02.013Z,76.8
2023-04-28T06:59:01.427Z,76.8
2023-04-28T07:00:01.919Z,77
2023-04-28T07:01:01.405Z,76.9
2023-04-28T07:02:01.942Z,76.9
2023-04-28T07:03:01.732Z,77
2023-04-28T07:04:02.221Z,77.1
2023-04-28T07:05:01.447Z,76.9
2023-04-28T07:06:02.004Z,77.2
2023-04-28T07:07:01.539Z,77
2023-04-28T07:08:02.232Z,76.7
2023-04-28T07:09:01.517Z,76.8
2023-04-28T07:10:02.030Z,77.2
2023-04-28T07:11:01.553Z,77.3
2023-04-28T07:12:02.008Z,77.1
2023-04-28T07:13:01.541Z,76.8
2023-04-28T07:14:02.168Z,76.5
2023-04-28T07:15:03.467Z,76.7
2023-04-28T07:16:02.354Z,77.1
2023-04-28T07:17:03.605Z,76.5
2023-04-28T07:18:01.614Z,76.4
2023-04-28T07:19:03.678Z,76.3
2023-04-28T07:20:01.591Z,75.8
2023-04-28T07:21:04.855Z,75.9
2023-04-28T07:22:01.765Z,76
2023-04-28T07:23:01.586Z,76.3
2023-04-28T07:24:01.839Z,76.2
2023-04-28T07:25:01.380Z,76
2023-04-28T07:26:01.903Z,76.2
2023-04-28T07:27:01.440Z,76.4
2023-04-28T07:28:02.164Z,76.7
2023-04-28T07:29:01.756Z,76.2
2023-04-28T07:31:01.942Z,76.6
2023-04-28T07:32:05.270Z,76.9
2023-04-28T07:33:01.539Z,76.8
2023-04-28T07:34:03.761Z,76.7
2023-04-28T07:35:03.368Z,77
2023-04-28T07:36:02.264Z,77
2023-04-28T07:37:01.772Z,77.1
2023-04-28T07:38:02.331Z,76.7
2023-04-28T07:39:01.835Z,76.9
2023-04-28T07:40:01.601Z,77.3
2023-04-28T07:41:01.513Z,76.1
2023-04-28T07:42:01.831Z,76.3
2023-04-28T07:43:01.592Z,76.7
2023-04-28T07:44:04.004Z,75.5
2023-04-28T07:45:03.770Z,76
2023-04-28T07:46:01.883Z,75.9
2023-04-28T07:47:03.135Z,75.4
2023-04-28T07:48:03.804Z,75.6
2023-04-28T07:49:01.761Z,76.1
2023-04-28T07:50:01.534Z,75.8
2023-04-28T07:51:01.988Z,76
2023-04-28T07:52:01.677Z,75.9
2023-04-28T07:53:03.057Z,76.1
2023-04-28T07:54:02.065Z,76
2023-04-28T07:55:01.770Z,76.2
2023-04-28T07:56:01.512Z,76.3
2023-04-28T07:57:02.316Z,76.5
2023-04-28T07:58:03.866Z,76.6
2023-04-28T07:59:01.849Z,76.8
2023-04-28T08:00:01.529Z,76.5
2023-04-28T08:01:01.597Z,76.8
2023-04-28T08:02:01.686Z,76.2
2023-04-28T08:03:01.611Z,76.4
2023-04-28T08:04:02.099Z,76.4
2023-04-28T08:05:02.604Z,76.3
2023-04-28T08:06:02.041Z,76.4
2023-04-28T08:07:02.236Z,75.8
2023-04-28T08:08:01.697Z,75.7
2023-04-28T08:09:02.167Z,76
2023-04-28T08:10:01.602Z,75.2
2023-04-28T08:11:03.765Z,75.1
2023-04-28T08:12:01.522Z,75.7
2023-04-28T08:13:03.693Z,74.8
2023-04-28T08:14:01.664Z,74.7
2023-04-28T08:15:03.695Z,75.1
2023-04-28T08:16:01.596Z,75.6
2023-04-28T08:17:03.592Z,76
2023-04-28T08:18:01.360Z,75.9
2023-04-28T08:19:01.910Z,75.9
2023-04-28T08:20:02.337Z,75.2
2023-04-28T08:21:01.787Z,74.2
2023-04-28T08:22:02.243Z,74.2
2023-04-28T08:23:01.759Z,74.7
2023-04-28T08:24:02.236Z,74.8
2023-04-28T08:25:01.681Z,74.3
2023-04-28T08:26:02.176Z,73.2
2023-04-28T08:27:01.676Z,71.2
2023-04-28T08:28:02.085Z,73.1
2023-04-28T08:29:01.542Z,72
2023-04-28T08:30:02.050Z,71.9
2023-04-28T08:31:01.649Z,70.7
2023-04-28T08:32:01.916Z,71.1
2023-04-28T08:33:01.515Z,69.9
2023-04-28T08:34:01.926Z,71.2
2023-04-28T08:35:01.360Z,70.6
2023-04-28T08:36:01.859Z,70.3
2023-04-28T08:37:02.318Z,70.8
2023-04-28T08:38:01.766Z,70.8
2023-04-28T08:39:02.238Z,69.5
2023-04-28T08:40:03.375Z,69.9
2023-04-28T08:41:02.144Z,69.8
2023-04-28T08:42:01.717Z,70.6
2023-04-28T08:43:02.070Z,70.5
2023-04-28T08:44:01.677Z,71.1
2023-04-28T08:45:02.071Z,71.3
2023-04-28T08:46:01.829Z,69.8
2023-04-28T08:47:02.212Z,70
2023-04-28T08:48:01.458Z,70.7
2023-04-28T08:49:01.928Z,71.3
2023-04-28T08:50:01.433Z,70.3
2023-04-28T08:51:01.938Z,70.7
2023-04-28T08:52:01.350Z,71
2023-04-28T08:53:01.843Z,70.8
2023-04-28T08:55:01.763Z,71.8
2023-04-28T08:56:02.265Z,70.2
2023-04-28T08:57:01.751Z,71
2023-04-28T08:58:02.236Z,71.7
2023-04-28T08:59:01.680Z,72.1
2023-04-28T09:00:02.153Z,71.9
2023-04-28T09:01:03.293Z,70.5
2023-04-28T09:02:02.140Z,71
2023-04-28T09:03:01.736Z,72.1
2023-04-28T09:04:04.288Z,71.9
2023-04-28T09:05:03.542Z,72.3
2023-04-28T09:06:02.021Z,71.9
2023-04-28T09:07:01.523Z,72.5
2023-04-28T09:08:02.157Z,72.3
2023-04-28T09:09:01.692Z,72.3
2023-04-28T09:10:02.159Z,71.9
2023-04-28T09:11:03.440Z,72.7
2023-04-28T09:12:01.776Z,73.3
2023-04-28T09:13:02.249Z,72.9
2023-04-28T09:14:03.356Z,71.9
2023-04-28T09:15:02.149Z,72.1
2023-04-28T09:16:01.746Z,72.3
2023-04-28T09:17:02.101Z,71.8
2023-04-28T09:18:03.423Z,72.7
2023-04-28T09:19:01.984Z,72.7
2023-04-28T09:20:01.514Z,72.4
2023-04-28T09:21:02.083Z,71.7
2023-04-28T09:22:13.687Z,71.8
2023-04-28T09:23:01.939Z,72.3
2023-04-28T09:24:01.354Z,72.9
2023-04-28T09:25:03.543Z,71.6
2023-04-28T09:26:01.359Z,72.9
2023-04-28T09:27:01.755Z,71.5
2023-04-28T09:28:02.215Z,72.1
2023-04-28T09:29:01.754Z,71.4
2023-04-28T09:30:02.251Z,71.6
2023-04-28T09:31:01.807Z,73.1
2023-04-28T09:32:02.167Z,71.2
2023-04-28T09:33:01.665Z,71.1
2023-04-28T09:34:02.083Z,71.4
2023-04-28T09:36:03.911Z,72.5
2023-04-28T09:37:01.897Z,72.3
2023-04-28T09:38:02.155Z,74.5
2023-04-28T09:39:01.699Z,73.1
2023-04-28T09:40:02.088Z,73.1
2023-04-28T09:41:01.563Z,72
2023-04-28T09:42:02.097Z,72.5
2023-04-28T09:43:11.695Z,74
2023-04-28T09:44:02.011Z,74.6
2023-04-28T09:45:01.435Z,74.2
2023-04-28T09:46:03.697Z,75
2023-04-28T09:47:03.071Z,72.9
2023-04-28T09:48:01.896Z,72.5
2023-04-28T09:49:01.373Z,73.5
2023-04-28T09:50:01.973Z,73.9
2023-04-28T09:51:02.358Z,74.8
2023-04-28T09:52:01.768Z,74.7
2023-04-28T09:53:02.250Z,75.7
2023-04-28T09:54:01.969Z,76.1
2023-04-28T09:55:02.269Z,76.5
2023-04-28T09:56:03.405Z,76
2023-04-28T09:57:02.149Z,77
2023-04-28T09:58:01.607Z,76.8
2023-04-28T09:59:02.106Z,77
2023-04-28T10:00:03.293Z,76.1
2023-04-28T10:01:03.799Z,76.7
2023-04-28T10:02:12.904Z,76.8
2023-04-28T10:03:02.257Z,76.5
2023-04-28T10:04:01.617Z,76.8
2023-04-28T10:05:02.364Z,77.6
2023-04-28T10:06:01.459Z,78.5
2023-04-28T10:07:01.920Z,79
2023-04-28T10:08:01.439Z,79
2023-04-28T10:09:02.252Z,79.4
2023-04-28T10:10:01.373Z,79.9
2023-04-28T10:11:01.968Z,79.8
2023-04-28T10:12:01.363Z,79.2
2023-04-28T10:13:01.906Z,78.5
2023-04-28T10:14:02.320Z,78
2023-04-28T10:15:01.760Z,78.9
2023-04-28T10:16:03.953Z,79.3
2023-04-28T10:17:01.854Z,79
2023-04-28T10:18:02.320Z,77.9
2023-04-28T10:19:01.693Z,78.6
2023-04-28T10:20:02.675Z,78.3
2023-04-28T10:21:03.150Z,78.1
2023-04-28T10:22:03.595Z,77.8
2023-04-28T10:23:01.390Z,77.9
2023-04-28T10:24:01.923Z,77.6
2023-04-28T10:25:02.324Z,77.1
2023-04-28T10:26:01.892Z,77.5
2023-04-28T10:27:02.238Z,77
2023-04-28T10:28:01.673Z,76
2023-04-28T10:29:02.169Z,76.8
2023-04-28T10:30:01.644Z,76.7
2023-04-28T10:31:02.130Z,77.5
2023-04-28T10:32:01.536Z,77.5
2023-04-28T10:33:02.043Z,77.3
2023-04-28T10:34:01.529Z,76.7
2023-04-28T10:35:01.941Z,77.4
2023-04-28T10:36:01.438Z,78.4
2023-04-28T10:37:02.006Z,78.4
2023-04-28T10:38:01.369Z,79
2023-04-28T10:39:01.925Z,78.9
2023-04-28T10:41:01.914Z,77.7
2023-04-28T10:42:02.244Z,78.1
2023-04-28T10:43:01.772Z,78.2
2023-04-28T10:44:02.247Z,78.2
2023-04-28T10:45:01.698Z,78.4
2023-04-28T10:46:03.967Z,78.7
2023-04-28T10:47:01.655Z,79.2
2023-04-28T10:48:02.132Z,78.2
2023-04-28T10:49:01.551Z,77.2
2023-04-28T10:50:03.767Z,78
2023-04-28T10:51:01.546Z,77.4
2023-04-28T10:52:02.022Z,78.4
2023-04-28T10:53:03.116Z,79.2
2023-04-28T10:54:01.963Z,78.4
2023-04-28T10:55:09.558Z,77.8
2023-04-28T10:56:01.962Z,78.8
2023-04-28T10:57:01.383Z,79.4
2023-04-28T10:58:01.996Z,78.8
2023-04-28T10:59:02.318Z,78.6
2023-04-28T11:00:01.791Z,78.1
2023-04-28T11:01:02.326Z,78.7
2023-04-28T11:02:03.916Z,77.5
2023-04-28T11:03:02.546Z,78
2023-04-28T11:04:02.354Z,78.4
2023-04-28T11:05:01.775Z,78.4
2023-04-28T11:06:01.461Z,77.6
2023-04-28T11:07:02.174Z,77.7
2023-04-28T11:08:01.712Z,78
2023-04-28T11:09:01.363Z,78.1
2023-04-28T11:10:03.707Z,77.9
2023-04-28T11:11:01.540Z,78.1
2023-04-28T11:12:02.087Z,78.2
2023-04-28T11:13:01.623Z,77.8
2023-04-28T11:14:02.087Z,76.1
2023-04-28T11:15:03.305Z,77.2
2023-04-28T11:16:02.299Z,78.2
2023-04-28T11:17:01.963Z,78.2
2023-04-28T11:18:01.476Z,78.3
2023-04-28T11:19:03.782Z,78.3
2023-04-28T11:20:01.602Z,78.4
2023-04-28T11:21:03.886Z,78.5
2023-04-28T11:22:01.848Z,77.1
2023-04-28T11:23:01.448Z,77.4
2023-04-28T11:24:02.075Z,77.3
2023-04-28T11:25:01.524Z,78.5
2023-04-28T11:26:03.775Z,78.6
2023-04-28T11:27:01.801Z,77.4
2023-04-28T11:28:03.368Z,77.2
2023-04-28T11:29:01.386Z,77.7
2023-04-28T11:30:02.075Z,78.2
2023-04-28T11:31:01.375Z,78.1
2023-04-28T11:32:03.529Z,77.6
2023-04-28T11:33:02.291Z,77.5
2023-04-28T11:34:01.797Z,78.3
2023-04-28T11:35:02.269Z,77.7
2023-04-28T11:36:01.679Z,77.6
2023-04-28T11:37:02.193Z,77.7
2023-04-28T11:38:01.688Z,77.3
2023-04-28T11:39:02.179Z,77.7
2023-04-28T11:40:01.616Z,77.9
2023-04-28T11:41:02.090Z,76.8
2023-04-28T11:42:01.629Z,77.2
2023-04-28T11:43:03.762Z,78
2023-04-28T11:44:01.532Z,78.1
2023-04-28T11:45:02.056Z,75.2
2023-04-28T11:46:01.489Z,75.7
2023-04-28T11:47:04.138Z,75.6
2023-04-28T11:48:01.486Z,76.1
2023-04-28T11:49:01.837Z,76.9
2023-04-28T11:50:01.519Z,78.1
2023-04-28T11:51:01.833Z,77.1
2023-04-28T11:52:02.317Z,77.9
2023-04-28T11:53:01.797Z,76.6
2023-04-28T11:54:02.236Z,77.2
2023-04-28T11:55:01.763Z,78.2
2023-04-28T11:56:02.247Z,77
2023-04-28T11:57:03.359Z,77.9
2023-04-28T11:58:02.185Z,76
2023-04-28T11:59:03.929Z,77.4
2023-04-28T12:00:02.206Z,78.4
2023-04-28T12:01:01.604Z,78
2023-04-28T12:02:02.182Z,78.5
2023-04-28T12:03:01.745Z,76.4
2023-04-28T12:04:02.263Z,75.7
2023-04-28T12:05:01.563Z,77.3
2023-04-28T12:06:03.654Z,73.3
2023-04-28T12:07:03.173Z,73
2023-04-28T12:08:01.940Z,74.6
2023-04-28T12:09:01.370Z,71.8
2023-04-28T12:10:03.542Z,73.1
2023-04-28T12:12:01.761Z,71.4
2023-04-28T12:13:02.246Z,74.4
2023-04-28T12:14:01.761Z,73
2023-04-28T12:15:02.311Z,71.3
2023-04-28T12:16:01.745Z,73.8
2023-04-28T12:17:02.264Z,73.4
2023-04-28T12:18:01.633Z,71.6
2023-04-28T12:19:02.295Z,72.8
2023-04-28T12:20:01.538Z,72.1
2023-04-28T12:21:02.305Z,71.9
2023-04-28T12:22:01.522Z,72.7
2023-04-28T12:23:01.988Z,72
2023-04-28T12:24:01.523Z,72.1
2023-04-28T12:25:02.349Z,70.1
2023-04-28T12:26:01.439Z,70.6
2023-04-28T12:27:01.926Z,71.8
2023-04-28T12:28:01.446Z,71.5
2023-04-28T12:29:01.922Z,73.1
2023-04-28T12:30:01.378Z,70.6
2023-04-28T12:31:01.929Z,71.4
2023-04-28T12:32:01.373Z,73.2
2023-04-28T12:33:01.932Z,71.4
2023-04-28T12:34:04.018Z,70.9
2023-04-28T12:35:03.454Z,71.6
2023-04-28T12:36:01.389Z,71.9
2023-04-28T12:37:02.412Z,70.3
2023-04-28T12:38:01.535Z,71.9
2023-04-28T12:39:02.017Z,70.2
2023-04-28T12:40:03.148Z,71.2
2023-04-28T12:41:01.924Z,71.6
2023-04-28T12:42:03.064Z,71.1
2023-04-28T12:43:01.849Z,71
2023-04-28T12:44:03.038Z,72
2023-04-28T12:45:01.755Z,72.3
2023-04-28T12:46:02.269Z,70.9
2023-04-28T12:47:03.459Z,71.5
2023-04-28T12:48:02.395Z,69.9
2023-04-28T12:49:01.712Z,72.7
2023-04-28T12:50:02.184Z,71.7
2023-04-28T12:51:01.619Z,72.2
2023-04-28T12:52:02.114Z,72
2023-04-28T12:53:01.600Z,72.7
2023-04-28T12:54:02.099Z,72.2
2023-04-28T12:55:01.519Z,72
2023-04-28T12:56:02.001Z,71.2
2023-04-28T12:57:01.452Z,71.5
2023-04-28T12:58:01.927Z,71.7
2023-04-28T12:59:01.471Z,71.8
2023-04-28T13:00:01.841Z,73.2
2023-04-28T13:01:01.369Z,73.1
2023-04-28T13:02:03.631Z,72.9
2023-04-28T13:03:01.359Z,71.4
2023-04-28T13:04:02.534Z,71.3
2023-04-28T13:05:02.016Z,71.1
2023-04-28T13:06:01.453Z,72.5
2023-04-28T13:07:02.025Z,71.7
2023-04-28T13:08:01.621Z,72.6
2023-04-28T13:09:03.982Z,72
2023-04-28T13:10:01.774Z,72.8
2023-04-28T13:11:03.006Z,72.2
2023-04-28T13:12:01.963Z,71.1
2023-04-28T13:13:01.475Z,71.6
2023-04-28T13:14:01.932Z,71.5
2023-04-28T13:15:01.544Z,71
2023-04-28T13:16:03.710Z,71.8
2023-04-28T13:17:01.592Z,72.7
2023-04-28T13:18:02.116Z,72.4
2023-04-28T13:19:01.534Z,71.9
2023-04-28T13:20:03.763Z,71.8
2023-04-28T13:21:01.613Z,72
2023-04-28T13:22:02.114Z,71.3
2023-04-28T13:23:01.622Z,71
2023-04-28T13:24:03.758Z,71.2
2023-04-28T13:25:01.540Z,71.4
2023-04-28T13:26:02.004Z,70.8
2023-04-28T13:27:01.559Z,71.5
2023-04-28T13:28:02.016Z,71.1
2023-04-28T13:29:03.127Z,70.7
2023-04-28T13:30:03.742Z,71.3
2023-04-28T13:31:01.457Z,70.8
2023-04-28T13:32:02.073Z,70.5